createdAt,value
2018-04-10T00:00:22.317Z,31.20
2018-04-10T00:02:49.833Z,31.10
2018-04-10T00:05:18.149Z,31.00
2018-04-10T00:07:45.655Z,30.90
2018-04-10T00:10:14.043Z,31.00
2018-04-10T00:12:42.290Z,30.90
2018-04-10T00:15:09.805Z,30.90
2018-04-10T00:17:37.297Z,30.80
2018-04-10T00:20:04.813Z,30.90
2018-04-10T00:22:32.335Z,30.90
2018-04-10T00:24:59.845Z,30.80
2018-04-10T00:27:27.363Z,30.90
2018-04-10T00:29:55.608Z,30.60
2018-04-10T00:32:23.118Z,30.70
2018-04-10T00:34:50.621Z,30.60
2018-04-10T00:37:18.214Z,31.10
2018-04-10T00:39:46.513Z,30.60
2018-04-10T00:42:14.019Z,30.60
2018-04-10T00:44:41.547Z,30.20
2018-04-10T00:47:09.177Z,31.30
2018-04-10T00:49:37.420Z,33.20
2018-04-10T00:52:04.904Z,33.20
2018-04-10T00:54:33.188Z,33.10
2018-04-10T00:57:01.436Z,32.00
2018-04-10T00:59:29.001Z,31.90
2018-04-10T01:01:56.529Z,33.70
2018-04-10T01:04:24.023Z,33.40
2018-04-10T01:06:51.525Z,32.70
2018-04-10T01:09:19.022Z,31.60
2018-04-10T01:11:46.517Z,32.20
2018-04-10T01:14:14.008Z,33.50
2018-04-10T01:16:41.516Z,33.10
2018-04-10T01:19:09.804Z,29.70
2018-04-10T01:21:38.051Z,29.80
2018-04-10T01:24:05.546Z,29.90
2018-04-10T01:26:33.804Z,29.40
2018-04-10T01:29:02.099Z,29.50
2018-04-10T01:31:30.459Z,29.80
2018-04-10T01:33:58.721Z,29.40
2018-04-10T01:36:26.232Z,29.40
2018-04-10T01:38:53.754Z,29.70
2018-04-10T01:41:22.000Z,29.50
2018-04-10T01:43:49.575Z,29.60
2018-04-10T01:46:17.085Z,29.90
2018-04-10T01:48:44.583Z,29.40
2018-04-10T01:51:12.081Z,29.40
2018-04-10T01:53:39.627Z,29.40
2018-04-10T01:56:07.899Z,29.30
2018-04-10T01:58:36.158Z,29.40
2018-04-10T02:01:03.653Z,29.40
2018-04-10T02:03:31.175Z,29.80
2018-04-10T02:05:58.645Z,29.30
2018-04-10T02:08:26.915Z,29.30
2018-04-10T02:10:54.437Z,29.30
2018-04-10T02:13:21.941Z,29.40
2018-04-10T02:15:49.433Z,29.30
2018-04-10T02:18:16.965Z,29.30
2018-04-10T02:20:45.332Z,29.30
2018-04-10T02:23:12.858Z,29.30
2018-04-10T02:25:40.356Z,29.50
2018-04-10T02:28:08.602Z,29.30
2018-04-10T02:30:36.145Z,29.30
2018-04-10T02:33:03.658Z,29.30
2018-04-10T02:35:31.918Z,29.30
2018-04-10T02:38:00.212Z,29.30
2018-04-10T02:40:28.474Z,29.30
2018-04-10T02:42:56.708Z,29.30
2018-04-10T02:45:24.223Z,29.30
2018-04-10T02:47:52.483Z,29.30
2018-04-10T02:50:20.768Z,29.30
2018-04-10T02:52:49.032Z,29.30
2018-04-10T02:55:17.315Z,29.90
2018-04-10T02:57:45.602Z,29.30
2018-04-10T03:00:13.987Z,29.30
2018-04-10T03:02:41.549Z,29.30
2018-04-10T03:05:09.047Z,29.30
2018-04-10T03:07:36.629Z,29.30
2018-04-10T03:10:04.128Z,29.30
2018-04-10T03:12:31.653Z,29.30
2018-04-10T03:14:59.889Z,29.30
2018-04-10T03:17:27.405Z,29.30
2018-04-10T03:19:55.668Z,29.30
2018-04-10T03:22:23.171Z,29.30
2018-04-10T03:24:50.715Z,29.30
2018-04-10T03:27:18.213Z,29.30
2018-04-10T03:29:45.823Z,29.30
2018-04-10T03:32:14.087Z,29.30
2018-04-10T03:34:42.372Z,29.30
2018-04-10T03:37:10.609Z,29.30
2018-04-10T03:39:38.123Z,29.30
2018-04-10T03:42:05.584Z,29.30
2018-04-10T03:44:33.097Z,29.30
2018-04-10T03:47:00.581Z,29.30
2018-04-10T03:49:28.861Z,29.30
2018-04-10T03:51:56.345Z,29.30
2018-04-10T03:54:23.849Z,29.30
2018-04-10T03:56:52.197Z,29.30
2018-04-10T04:01:52.651Z,29.30
2018-04-10T04:04:20.150Z,29.30
2018-04-10T04:06:47.656Z,29.30
2018-04-10T04:09:15.162Z,29.30
2018-04-10T04:11:43.402Z,29.30
2018-04-10T04:14:10.916Z,29.20
2018-04-10T04:16:50.459Z,29.30
2018-04-10T04:19:29.790Z,29.20
2018-04-10T04:22:18.987Z,29.30
2018-04-10T04:24:46.505Z,29.30
2018-04-10T04:27:14.803Z,29.30
2018-04-10T04:29:42.291Z,29.30
2018-04-10T04:32:09.797Z,29.30
2018-04-10T04:34:38.171Z,29.30
2018-04-10T04:37:06.449Z,29.30
2018-04-10T04:39:34.723Z,29.30
2018-04-10T04:42:02.967Z,29.30
2018-04-10T04:44:30.561Z,29.30
2018-04-10T04:46:58.829Z,29.30
2018-04-10T04:49:27.075Z,29.30
2018-04-10T04:51:54.605Z,29.30
2018-04-10T04:54:22.127Z,29.30
2018-04-10T04:56:50.412Z,29.30
2018-04-10T04:59:17.949Z,29.30
2018-04-10T05:01:45.439Z,29.30
2018-04-10T05:04:12.953Z,29.30
2018-04-10T05:06:40.487Z,29.30
2018-04-10T05:09:08.051Z,29.30
2018-04-10T05:11:35.557Z,29.30
2018-04-10T05:14:03.859Z,29.80
2018-04-10T05:16:31.371Z,29.20
2018-04-10T05:18:58.983Z,29.30
2018-04-10T05:21:26.489Z,29.30
2018-04-10T05:23:54.101Z,29.30
2018-04-10T05:26:21.619Z,29.30
2018-04-10T05:28:49.115Z,29.30
2018-04-10T05:31:16.631Z,29.30
2018-04-10T05:33:44.141Z,29.30
2018-04-10T05:36:11.655Z,29.30
2018-04-10T05:38:39.931Z,29.30
2018-04-10T05:41:08.209Z,29.30
2018-04-10T05:43:36.473Z,29.30
2018-04-10T05:46:04.759Z,29.60
2018-04-10T05:48:32.299Z,29.30
2018-04-10T05:50:59.773Z,29.30
2018-04-10T05:53:27.251Z,29.50
2018-04-10T05:55:55.536Z,29.30
2018-04-10T05:58:23.039Z,29.80
2018-04-10T06:00:50.547Z,29.30
2018-04-10T06:03:18.048Z,29.40
2018-04-10T06:05:45.555Z,29.30
2018-04-10T06:08:13.859Z,29.30
2018-04-10T06:10:41.405Z,29.30
2018-04-10T06:13:08.933Z,29.30
2018-04-10T06:15:36.425Z,29.30
2018-04-10T06:18:04.781Z,28.90
2018-04-10T06:20:33.019Z,29.40
2018-04-10T06:23:00.517Z,29.30
2018-04-10T06:25:28.808Z,29.40
2018-04-10T06:27:56.358Z,29.30
2018-04-10T06:30:24.614Z,29.30
2018-04-10T06:32:52.200Z,29.30
2018-04-10T06:35:19.733Z,29.40
2018-04-10T06:37:48.029Z,29.40
2018-04-10T06:40:15.530Z,29.40
2018-04-10T06:42:43.027Z,29.30
2018-04-10T06:45:11.273Z,28.60
2018-04-10T06:47:38.804Z,28.90
2018-04-10T06:50:06.318Z,28.40
2018-04-10T06:52:33.799Z,29.30
2018-04-10T06:55:02.073Z,28.90
2018-04-10T06:57:30.351Z,28.40
2018-04-10T06:59:58.617Z,29.30
2018-04-10T07:02:26.909Z,28.80
2018-04-10T07:04:54.475Z,28.80
2018-04-10T07:07:21.989Z,28.60
2018-04-10T07:09:49.587Z,29.10
2018-04-10T07:12:17.085Z,28.90
2018-04-10T07:14:44.687Z,28.90
2018-04-10T07:17:12.952Z,28.90
2018-04-10T07:19:40.463Z,28.80
2018-04-10T07:22:07.980Z,28.30
2018-04-10T07:24:35.486Z,28.40
2018-04-10T07:27:03.010Z,28.50
2018-04-10T07:29:30.492Z,28.70
2018-04-10T07:31:58.049Z,28.80
2018-04-10T07:34:25.534Z,28.50
2018-04-10T07:36:53.058Z,28.70
2018-04-10T07:39:21.485Z,29.20
2018-04-10T07:41:49.081Z,29.00
2018-04-10T07:44:17.359Z,28.60
2018-04-10T07:46:45.625Z,29.40
2018-04-10T07:49:13.952Z,28.70
2018-04-10T07:51:41.452Z,28.70
2018-04-10T07:54:08.943Z,28.80
2018-04-10T07:56:36.440Z,28.70
2018-04-10T07:59:03.944Z,29.40
2018-04-10T08:01:32.208Z,28.70
2018-04-10T08:04:00.609Z,29.20
2018-04-10T08:06:28.096Z,29.30
2018-04-10T08:08:55.581Z,29.50
2018-04-10T08:11:23.098Z,29.50
2018-04-10T08:13:50.673Z,29.50
2018-04-10T08:16:18.229Z,29.60
2018-04-10T08:18:45.726Z,29.60
2018-04-10T08:21:13.211Z,29.60
2018-04-10T08:23:40.744Z,29.60
2018-04-10T08:26:08.230Z,29.60
2018-04-10T08:28:35.783Z,30.00
2018-04-10T08:31:04.017Z,29.70
2018-04-10T08:33:31.605Z,29.70
2018-04-10T08:35:59.902Z,29.70
2018-04-10T08:38:27.406Z,29.60
2018-04-10T08:40:54.897Z,29.70
2018-04-10T08:43:23.157Z,29.70
2018-04-10T08:45:50.753Z,29.70
2018-04-10T08:48:18.262Z,29.70
2018-04-10T08:50:45.782Z,29.70
2018-04-10T08:53:13.248Z,29.70
2018-04-10T08:55:40.747Z,29.70
2018-04-10T08:58:08.242Z,29.70
2018-04-10T09:00:35.805Z,29.70
2018-04-10T09:03:03.285Z,29.70
2018-04-10T09:05:30.781Z,29.70
2018-04-10T09:07:58.303Z,29.70
2018-04-10T09:10:25.809Z,29.70
2018-04-10T09:12:54.073Z,29.80
2018-04-10T09:15:21.571Z,29.70
2018-04-10T09:17:49.100Z,29.70
2018-04-10T09:20:16.575Z,29.70
2018-04-10T09:22:44.853Z,29.70
2018-04-10T09:25:13.131Z,29.80
2018-04-10T09:27:41.395Z,29.70
2018-04-10T09:30:09.711Z,29.50
2018-04-10T09:32:37.235Z,29.70
2018-04-10T09:35:05.533Z,29.80
2018-04-10T09:37:33.017Z,29.70
2018-04-10T09:40:00.524Z,29.70
2018-04-10T09:42:28.789Z,29.80
2018-04-10T09:44:56.276Z,29.70
2018-04-10T09:47:23.786Z,29.70
2018-04-10T09:49:51.249Z,29.70
2018-04-10T09:52:18.754Z,29.70
2018-04-10T09:54:46.304Z,29.70
2018-04-10T09:57:14.591Z,29.80
2018-04-10T09:59:44.052Z,29.80
2018-04-10T10:02:11.540Z,29.80
2018-04-10T10:04:39.809Z,29.80
2018-04-10T10:07:08.073Z,29.90
2018-04-10T10:09:35.653Z,29.80
2018-04-10T10:12:03.898Z,29.80
2018-04-10T10:14:31.360Z,29.80
2018-04-10T10:16:58.884Z,29.80
2018-04-10T10:19:26.390Z,29.80
2018-04-10T10:21:54.679Z,29.90
2018-04-10T10:24:22.944Z,29.90
2018-04-10T10:26:51.197Z,29.90
2018-04-10T10:29:19.439Z,29.90
2018-04-10T10:31:47.077Z,29.90
2018-04-10T10:34:14.566Z,29.90
2018-04-10T10:36:42.073Z,29.90
2018-04-10T10:39:10.370Z,29.90
2018-04-10T10:41:37.851Z,29.90
2018-04-10T10:44:05.340Z,29.90
2018-04-10T10:46:32.811Z,29.80
2018-04-10T10:49:01.076Z,29.80
2018-04-10T10:51:28.579Z,30.30
2018-04-10T10:53:56.223Z,29.80
2018-04-10T10:56:24.464Z,29.80
2018-04-10T10:58:52.068Z,29.80
2018-04-10T11:01:19.596Z,29.80
2018-04-10T11:03:47.851Z,29.80
2018-04-10T11:06:15.486Z,29.80
2018-04-10T11:08:42.955Z,29.70
2018-04-10T11:11:10.420Z,29.80
2018-04-10T11:13:37.956Z,29.70
2018-04-10T11:16:05.440Z,29.70
2018-04-10T11:18:32.946Z,29.70
2018-04-10T11:21:00.488Z,29.70
2018-04-10T11:23:28.776Z,30.40
2018-04-10T11:25:57.024Z,29.70
2018-04-10T11:28:26.161Z,29.80
2018-04-10T11:30:53.651Z,29.70
2018-04-10T11:33:21.139Z,29.70
2018-04-10T11:35:48.680Z,29.70
2018-04-10T11:38:16.165Z,29.70
2018-04-10T11:40:43.670Z,29.70
2018-04-10T11:43:11.176Z,29.60
2018-04-10T11:45:39.501Z,29.70
2018-04-10T11:48:06.968Z,29.70
2018-04-10T11:50:34.427Z,29.70
2018-04-10T11:53:01.958Z,29.80
2018-04-10T11:55:29.486Z,29.70
2018-04-10T11:57:57.004Z,29.80
2018-04-10T12:00:24.524Z,29.70
2018-04-10T12:02:52.779Z,29.80
2018-04-10T12:05:20.301Z,29.70
2018-04-10T12:07:47.793Z,29.80
2018-04-10T12:10:15.282Z,29.70
2018-04-10T12:12:42.794Z,30.00
2018-04-10T12:15:11.189Z,29.70
2018-04-10T12:17:39.515Z,29.70
2018-04-10T12:20:07.002Z,29.80
2018-04-10T12:22:34.527Z,29.70
2018-04-10T12:25:02.087Z,30.80
2018-04-10T12:27:29.637Z,31.00
2018-04-10T12:29:57.141Z,31.10
2018-04-10T12:32:24.643Z,31.40
2018-04-10T12:34:52.911Z,29.70
2018-04-10T12:37:21.220Z,29.70
2018-04-10T12:39:48.757Z,29.70
2018-04-10T12:42:17.023Z,29.70
2018-04-10T12:44:45.318Z,29.70
2018-04-10T12:47:12.825Z,29.70
2018-04-10T12:49:40.297Z,29.70
2018-04-10T12:52:07.788Z,29.70
2018-04-10T12:54:35.283Z,29.70
2018-04-10T12:57:02.793Z,29.70
2018-04-10T12:59:31.047Z,29.70
2018-04-10T13:02:00.042Z,29.70
2018-04-10T13:04:28.288Z,29.70
2018-04-10T13:06:55.809Z,29.70
2018-04-10T13:09:23.291Z,29.70
2018-04-10T13:11:50.911Z,29.70
2018-04-10T13:14:19.215Z,29.70
2018-04-10T13:16:46.732Z,29.70
2018-04-10T13:19:14.306Z,29.70
2018-04-10T13:21:42.608Z,29.70
2018-04-10T13:24:10.144Z,29.70
2018-04-10T13:26:38.541Z,29.70
2018-04-10T13:29:06.780Z,29.70
2018-04-10T13:31:34.300Z,29.70
2018-04-10T13:34:01.808Z,29.70
2018-04-10T13:36:30.080Z,29.70
2018-04-10T13:38:58.322Z,29.70
2018-04-10T13:41:25.804Z,29.70
2018-04-10T13:43:53.330Z,29.70
2018-04-10T13:46:20.929Z,29.70
2018-04-10T13:48:49.213Z,29.70
2018-04-10T13:51:17.453Z,29.70
2018-04-10T13:53:44.945Z,29.70
2018-04-10T13:56:13.227Z,29.70
2018-04-10T13:58:41.534Z,29.70
2018-04-10T14:01:09.053Z,29.70
2018-04-10T14:03:36.569Z,29.70
2018-04-10T14:06:04.107Z,29.70
2018-04-10T14:08:31.631Z,29.70
2018-04-10T14:10:59.910Z,30.20
2018-04-10T14:13:28.152Z,29.70
2018-04-10T14:15:55.657Z,30.10
2018-04-10T14:18:23.151Z,29.70
2018-04-10T14:20:50.677Z,29.70
2018-04-10T14:23:18.191Z,29.70
2018-04-10T14:25:45.709Z,29.70
2018-04-10T14:28:13.228Z,29.60
2018-04-10T14:30:40.697Z,29.60
2018-04-10T14:33:08.956Z,29.70
2018-04-10T14:35:38.459Z,29.60
2018-04-10T14:38:06.003Z,29.60
2018-04-10T14:40:33.512Z,29.70
2018-04-10T14:43:01.023Z,29.60
2018-04-10T14:45:28.538Z,29.60
2018-04-10T14:47:56.049Z,29.70
2018-04-10T14:50:23.587Z,29.60
2018-04-10T14:52:51.096Z,29.60
2018-04-10T14:55:18.570Z,29.60
2018-04-10T14:57:46.096Z,29.60
2018-04-10T15:00:14.362Z,29.60
2018-04-10T15:02:41.888Z,29.60
2018-04-10T15:05:09.389Z,29.60
2018-04-10T15:07:37.679Z,29.60
2018-04-10T15:10:05.958Z,29.60
2018-04-10T15:12:33.479Z,29.60
2018-04-10T15:15:01.025Z,29.60
2018-04-10T15:17:28.519Z,29.60
2018-04-10T15:19:56.804Z,29.60
2018-04-10T15:22:25.036Z,29.60
2018-04-10T15:24:52.505Z,29.60
2018-04-10T15:27:20.005Z,29.60
2018-04-10T15:29:47.542Z,29.50
2018-04-10T15:32:15.824Z,28.60
2018-04-10T15:34:44.110Z,29.60
2018-04-10T15:37:12.372Z,29.70
2018-04-10T15:39:41.432Z,29.70
2018-04-10T15:42:08.949Z,29.70
2018-04-10T15:44:36.451Z,29.70
2018-04-10T15:47:03.990Z,29.70
2018-04-10T15:49:31.480Z,29.70
2018-04-10T15:51:59.004Z,29.50
2018-04-10T15:54:26.503Z,29.10
2018-04-10T15:56:55.623Z,28.90
2018-04-10T15:59:23.910Z,27.60
2018-04-10T16:01:51.410Z,27.10
2018-04-10T16:04:18.921Z,26.60
2018-04-10T16:06:46.453Z,26.40
2018-04-10T16:09:14.023Z,27.20
2018-04-10T16:11:41.590Z,28.10
2018-04-10T16:14:09.863Z,28.70
2018-04-10T16:16:38.110Z,28.60
2018-04-10T16:19:05.620Z,28.60
2018-04-10T16:21:33.101Z,28.30
2018-04-10T16:24:00.634Z,28.80
2018-04-10T16:26:28.209Z,26.50
2018-04-10T16:28:55.729Z,26.30
2018-04-10T16:31:25.735Z,27.60
2018-04-10T16:33:53.264Z,27.60
2018-04-10T16:36:20.749Z,28.20
2018-04-10T16:38:48.325Z,28.10
2018-04-10T16:41:16.603Z,28.70
2018-04-10T16:43:44.145Z,28.80
2018-04-10T16:46:11.620Z,30.20
2018-04-10T16:48:39.893Z,30.50
2018-04-10T16:51:08.179Z,30.20
2018-04-10T16:53:37.829Z,30.20
2018-04-10T16:56:05.347Z,30.30
2018-04-10T16:58:33.608Z,30.30
2018-04-10T17:01:01.185Z,30.60
2018-04-10T17:03:29.425Z,30.20
2018-04-10T17:05:57.012Z,30.20
2018-04-10T17:08:25.293Z,32.20
2018-04-10T17:10:53.545Z,31.90
2018-04-10T17:13:21.022Z,31.80
2018-04-10T17:15:49.381Z,32.50
2018-04-10T17:18:16.861Z,32.60
2018-04-10T17:20:45.106Z,34.30
2018-04-10T17:23:14.102Z,34.50
2018-04-10T17:25:41.609Z,34.50
2018-04-10T17:28:09.151Z,34.40
2018-04-10T17:30:36.673Z,34.50
2018-04-10T17:33:04.231Z,35.00
2018-04-10T17:35:31.817Z,34.40
2018-04-10T17:38:00.132Z,34.00
2018-04-10T17:40:27.644Z,33.90
2018-04-10T17:42:55.970Z,33.80
2018-04-10T17:45:23.454Z,34.50
2018-04-10T17:47:50.967Z,32.80
2018-04-10T17:50:18.524Z,33.00
2018-04-10T17:52:46.084Z,33.00
2018-04-10T17:55:13.659Z,32.80
2018-04-10T17:57:41.179Z,32.80
2018-04-10T18:00:09.462Z,32.60
2018-04-10T18:02:37.746Z,32.80
2018-04-10T18:05:06.129Z,32.30
2018-04-10T18:07:33.664Z,32.40
2018-04-10T18:10:01.183Z,32.70
2018-04-10T18:12:28.822Z,32.00
2018-04-10T18:14:56.305Z,32.50
2018-04-10T18:17:23.814Z,33.10
2018-04-10T18:19:52.155Z,32.80
2018-04-10T18:22:19.674Z,32.80
2018-04-10T18:24:47.224Z,33.00
2018-04-10T18:27:14.766Z,32.90
2018-04-10T18:29:43.034Z,33.00
2018-04-10T18:32:11.308Z,32.70
2018-04-10T18:34:38.810Z,32.70
2018-04-10T18:37:06.281Z,32.30
2018-04-10T18:39:33.828Z,34.10
2018-04-10T18:42:01.350Z,35.60
2018-04-10T18:44:29.614Z,35.50
2018-04-10T18:46:57.112Z,35.80
2018-04-10T18:49:24.624Z,34.70
2018-04-10T18:51:52.150Z,34.90
2018-04-10T18:54:19.664Z,34.10
2018-04-10T18:56:47.960Z,35.30
2018-04-10T18:59:15.467Z,35.40
2018-04-10T19:01:42.935Z,35.10
2018-04-10T19:04:11.180Z,34.50
2018-04-10T19:06:38.718Z,34.70
2018-04-10T19:09:06.211Z,34.70
2018-04-10T19:11:33.691Z,35.10
2018-04-10T19:14:01.392Z,35.70
2018-04-10T19:16:28.887Z,34.80
2018-04-10T19:18:56.368Z,34.30
2018-04-10T19:21:23.884Z,35.70
2018-04-10T19:23:51.369Z,35.70
2018-04-10T19:26:19.682Z,35.60
2018-04-10T19:28:48.098Z,35.70
2018-04-10T19:31:15.624Z,35.60
2018-04-10T19:33:43.896Z,35.60
2018-04-10T19:36:12.170Z,36.20
2018-04-10T19:38:40.474Z,35.70
2018-04-10T19:41:08.854Z,35.60
2018-04-10T19:43:36.332Z,35.80
2018-04-10T19:46:03.962Z,36.30
2018-04-10T19:48:31.470Z,35.60
2018-04-10T19:50:58.965Z,35.50
2018-04-10T19:53:27.228Z,36.60
2018-04-10T19:55:55.497Z,35.60
2018-04-10T19:58:23.796Z,35.60
2018-04-10T20:00:52.085Z,35.60
2018-04-10T20:03:19.590Z,35.70
2018-04-10T20:05:47.094Z,35.50
2018-04-10T20:08:14.682Z,32.50
2018-04-10T20:10:42.268Z,30.90
2018-04-10T20:13:10.386Z,32.00
2018-04-10T20:15:37.880Z,31.70
2018-04-10T20:18:05.353Z,32.90
2018-04-10T20:20:32.854Z,32.70
2018-04-10T20:23:01.122Z,34.00
2018-04-10T20:25:29.454Z,33.80
2018-04-10T20:27:56.964Z,33.90
2018-04-10T20:30:25.216Z,34.10
2018-04-10T20:32:52.730Z,34.10
2018-04-10T20:35:20.206Z,34.40
2018-04-10T20:37:47.827Z,34.30
2018-04-10T20:40:15.353Z,34.50
2018-04-10T20:42:42.892Z,34.20
2018-04-10T20:45:10.373Z,34.70
2018-04-10T20:47:37.944Z,34.70
2018-04-10T20:50:06.228Z,34.20
2018-04-10T20:52:33.770Z,34.20
2018-04-10T20:55:02.000Z,34.80
2018-04-10T20:57:30.107Z,34.60
2018-04-10T20:59:57.576Z,34.60
2018-04-10T21:02:25.130Z,35.10
2018-04-10T21:04:52.648Z,35.30
2018-04-10T21:07:20.142Z,35.50
2018-04-10T21:09:47.622Z,35.60
2018-04-10T21:12:16.027Z,36.20
2018-04-10T21:14:43.570Z,36.30
2018-04-10T21:17:11.118Z,37.00
2018-04-10T21:19:39.362Z,36.90
2018-04-10T21:22:07.007Z,36.90
2018-04-10T21:24:34.494Z,37.20
2018-04-10T21:27:02.744Z,34.50
2018-04-10T21:29:30.260Z,34.60
2018-04-10T21:31:57.868Z,34.10
2018-04-10T21:34:25.389Z,33.00
2018-04-10T21:36:52.918Z,33.30
2018-04-10T21:39:21.171Z,33.70
2018-04-10T21:41:48.702Z,33.70
2018-04-10T21:44:16.374Z,33.90
2018-04-10T21:46:43.903Z,35.40
2018-04-10T21:49:11.393Z,34.80
2018-04-10T21:51:38.877Z,34.20
2018-04-10T21:54:06.396Z,33.20
2018-04-10T21:56:34.032Z,32.90
2018-04-10T21:59:01.548Z,32.60
2018-04-10T22:01:29.036Z,32.70
2018-04-10T22:03:57.290Z,32.30
2018-04-10T22:06:24.813Z,32.40
2018-04-10T22:08:52.300Z,32.60
2018-04-10T22:11:19.812Z,32.10
2018-04-10T22:13:47.304Z,32.00
2018-04-10T22:16:14.816Z,31.80
2018-04-10T22:18:42.752Z,31.90
2018-04-10T22:21:10.236Z,31.80
2018-04-10T22:23:37.758Z,31.80
2018-04-10T22:26:05.232Z,31.60
2018-04-10T22:28:33.526Z,31.70
2018-04-10T22:31:01.811Z,31.60
2018-04-10T22:33:29.335Z,31.60
2018-04-10T22:35:57.571Z,31.80
2018-04-10T22:38:25.069Z,31.80
2018-04-10T22:40:52.587Z,31.70
2018-04-10T22:43:20.099Z,31.70
2018-04-10T22:45:47.585Z,31.70
2018-04-10T22:48:15.089Z,31.50
2018-04-10T22:50:43.418Z,31.60
2018-04-10T22:53:11.750Z,31.50
2018-04-10T22:55:39.274Z,31.50
2018-04-10T22:58:06.889Z,31.40
2018-04-10T23:00:49.251Z,31.40
2018-04-10T23:03:16.740Z,31.30
2018-04-10T23:05:44.226Z,31.40
2018-04-10T23:08:11.740Z,31.30
2018-04-10T23:10:40.023Z,31.50
2018-04-10T23:13:07.551Z,31.60
2018-04-10T23:15:35.054Z,31.50
2018-04-10T23:18:03.285Z,31.40
2018-04-10T23:20:30.759Z,31.40
2018-04-10T23:22:58.299Z,31.60
2018-04-10T23:25:25.843Z,31.60
2018-04-10T23:27:53.355Z,31.30
2018-04-10T23:30:21.696Z,31.40
2018-04-10T23:32:49.187Z,31.50
2018-04-10T23:35:17.534Z,31.10
2018-04-10T23:37:45.610Z,31.10
2018-04-10T23:40:13.077Z,31.30
2018-04-10T23:42:40.629Z,31.60
2018-04-10T23:45:08.099Z,31.50
2018-04-10T23:47:35.613Z,31.40
2018-04-10T23:50:03.139Z,31.50
2018-04-10T23:52:32.357Z,31.60
2018-04-10T23:55:00.620Z,31.50
2018-04-10T23:57:28.106Z,31.60
2018-04-10T23:59:55.616Z,31.60
